메인 페이지
METAR-TAF:

METAR-TAF

공항 :

Plainview, 텍사스, 미국

위도: 34-10-05N, 경도: 101-43-02W, 고도: 1028m

현재 날씨관측

예보는 28분 전, 15:55시(UTC)에 발표되었습니다.
9kt
온도 8°C
습도 34%
기압 1025 hPa
시정: 16.1km
맑음

METAR: KPVW 161555Z AUTO 01009KT 10SM CLR 08/M07 A3027 RMK AO2 T00761067

시각: 10:23 (16:23 UTC)

예보

예보는 5 시간 3분 전, 11:20시(UTC)에 발표되었습니다.
예보 대상 시간: 16일 12시부터 17일 12시까지 (UTC)
북서8kt
시정: 10km
고도 25000ft 상공 구름 많음
16일 1600시부터 (UTC)
8kt
시정: 10km
고도 25000ft 상공 구름 많음

TAF: KPVW 161120Z 1612/1712 31008KT P6SM BKN250 FM161600 36008KT P6SM BKN250

4,000개 이상의 공항 관측 자료 및 예보 (METAR 및 TAF 보고).

지도상에서 검색 가능한 기상관측소가 노란 점과 빨간 점으로 표시되어 있습니다.

기상관측소 명을 보려면 표시 위로 마우스를 이동하세요.

날씨 관측과 예보를 보려면 클릭하세요.

지도 변경 : 확대하려면 엑스 표시가 있는 녹색 버튼, 축소하려면 빼기 표시가 있는 녹색 버튼, 다음 페이지의 지도를 보려면 녹색 화살표를 클릭하세요.


METAR-TAF: